Monticello, AR

8:05 AM CDT on July 03, 2015 (GMT -0500)
Hwy 172 | | Change Station
CLOSE
Current Station
Personal Weather Station
Location: Monticello, AR
Elevation: 246 ft
Nearby Weather Stations

Elev 246 ft 33.55 °N, 91.82 °W | Updated 30 seconds ago

Partly Cloudy
Partly Cloudy
77.7 °F
Feels Like 80 °F
N
1.2
Wind Variable Wind from NW
Gusts 3.8 mph

Today
High -- | Low -- °F
--% Chance of Precip.
Yesterday
High -- | Low -- °F
Precip. -- in
6:01 AM 8:21 PM
Full, 97% visible
Pressure 29.94 in
Visibility 10.0 miles
Clouds Few 7500 ft
Heat Index 80 °F
Dew Point 69 °F
Humidity 74%
Rainfall 0.00 in
Snow Depth Not available.
UV 1 out of 12
Pollen .60 out of 12
Air Quality Not available.
Flu Activity Not available.
METAR KLLQ 031253Z AUTO 23008KT 10SM FEW075 26/24 A2995 RMK AO2 SLP137 T02560239

More Conditions Fewer Conditions

Pressure 29.94 in
Visibility 10.0 miles
Clouds Few 7500 ft
Heat Index 80 °F
Dew Point 69 °F
Humidity 74%
Rainfall 0.00 in
Snow Depth Not available.
UV 1 out of 12
Pollen .60 out of 12
Air Quality Not available.
Flu Activity Not available.
METAR KLLQ 031253Z AUTO 23008KT 10SM FEW075 26/24 A2995 RMK AO2 SLP137 T02560239

More Conditions Fewer Conditions

10-Day Weather Forecast

×

Almanac

Astronomy

Jul. 03, 2015 Rise Set
Actual Time
Civil Twilight
Nautical Twilight
Astronomical Twilight
Moon
Length of Visible Light
Length of Day
Tomorrow will be .
, % of the Moon is Illuminated

Today's Extremes

State Highs State Lows

Community

WunderPhotos

Upload Photos

1,834,662 photos uploaded!

WunderBlogs® & News

Nearby

Air Quality

  Air Quality AQ Index Pollutant
Not available.

Snow Depth

Station Depth Elevation

Earthquake Activity

City Distance Mag. Time & Date
Minimum magnitude displayed is 2.5.

Coastal Water Temperatures

Place Temperature

Stations

Nearby Weather Stations

Station Location Temp. Windchill Dew Point Humidity Wind Precip. Elev Updated Type